createdAt,value
2018-07-02T00:02:00.825Z,0.60
2018-07-02T00:04:29.091Z,0.60
2018-07-02T00:07:02.724Z,0.70
2018-07-02T00:09:30.873Z,0.60
2018-07-02T00:11:59.556Z,0.50
2018-07-02T00:14:27.733Z,0.63
2018-07-02T00:16:55.752Z,0.70
2018-07-02T00:19:23.760Z,0.90
2018-07-02T00:21:52.129Z,0.70
2018-07-02T00:24:20.143Z,0.70
2018-07-02T00:26:48.257Z,0.70
2018-07-02T00:29:16.257Z,0.60
2018-07-02T00:31:44.556Z,0.60
2018-07-02T00:34:12.879Z,0.60
2018-07-02T00:36:41.120Z,0.70
2018-07-02T00:39:11.016Z,0.70
2018-07-02T00:41:39.652Z,0.70
2018-07-02T00:44:07.816Z,0.50
2018-07-02T00:46:36.130Z,0.62
2018-07-02T00:49:04.475Z,0.68
2018-07-02T00:51:32.621Z,0.60
2018-07-02T00:54:00.843Z,0.70
2018-07-02T00:56:29.047Z,0.60
2018-07-02T00:58:57.093Z,0.80
2018-07-02T01:01:26.177Z,0.70
2018-07-02T01:03:54.548Z,0.60
2018-07-02T01:06:22.607Z,0.60
2018-07-02T01:08:50.946Z,0.60
2018-07-02T01:11:19.221Z,0.70
2018-07-02T01:13:47.464Z,0.65
2018-07-02T01:16:15.540Z,0.60
2018-07-02T01:18:43.472Z,0.70
2018-07-02T01:21:11.796Z,0.60
2018-07-02T01:23:40.709Z,0.78
2018-07-02T01:26:08.936Z,0.60
2018-07-02T01:28:37.294Z,0.70
2018-07-02T01:31:05.268Z,0.60
2018-07-02T01:33:33.819Z,0.70
2018-07-02T01:36:02.488Z,0.70
2018-07-02T01:38:30.504Z,0.50
2018-07-02T01:40:58.747Z,0.60
2018-07-02T01:43:27.062Z,0.60
2018-07-02T01:45:55.022Z,0.70
2018-07-02T01:48:22.964Z,0.70
2018-07-02T01:50:51.536Z,0.70
2018-07-02T01:53:20.136Z,0.60
2018-07-02T01:55:48.254Z,0.60
2018-07-02T01:58:16.484Z,0.60
2018-07-02T02:00:44.652Z,0.60
2018-07-02T02:03:12.579Z,0.60
2018-07-02T02:05:40.633Z,0.60
2018-07-02T02:08:08.555Z,0.60
2018-07-02T02:10:36.616Z,0.60
2018-07-02T02:13:05.016Z,0.60
2018-07-02T02:15:33.804Z,0.60
2018-07-02T02:18:01.930Z,0.70
2018-07-02T02:20:29.913Z,0.60
2018-07-02T02:22:57.845Z,0.63
2018-07-02T02:25:25.801Z,0.70
2018-07-02T02:27:53.806Z,0.70
2018-07-02T02:30:21.836Z,0.70
2018-07-02T02:32:50.409Z,0.65
2018-07-02T02:35:18.592Z,0.70
2018-07-02T02:37:46.564Z,0.80
2018-07-02T02:40:14.525Z,0.70
2018-07-02T02:42:42.573Z,0.60
2018-07-02T02:45:10.834Z,0.78
2018-07-02T02:47:39.026Z,0.60
2018-07-02T02:50:07.228Z,0.60
2018-07-02T02:52:35.464Z,0.60
2018-07-02T02:55:03.452Z,0.80
2018-07-02T02:57:31.540Z,0.60
2018-07-02T02:59:59.822Z,0.60
2018-07-02T03:02:27.769Z,0.70
2018-07-02T03:04:56.071Z,0.60
2018-07-02T03:07:24.061Z,0.80
2018-07-02T03:09:52.365Z,0.60
2018-07-02T03:12:20.371Z,0.60
2018-07-02T03:14:48.761Z,0.80
2018-07-02T03:17:16.837Z,0.90
2018-07-02T03:19:44.861Z,0.60
2018-07-02T03:22:13.081Z,0.60
2018-07-02T03:24:41.359Z,0.70
2018-07-02T03:27:09.395Z,0.70
2018-07-02T03:29:37.625Z,0.60
2018-07-02T03:32:05.596Z,0.60
2018-07-02T03:34:33.532Z,0.90
2018-07-02T03:37:01.501Z,0.60
2018-07-02T03:39:29.716Z,0.70
2018-07-02T03:41:57.900Z,0.60
2018-07-02T03:44:25.865Z,0.60
2018-07-02T03:46:54.004Z,0.60
2018-07-02T03:49:22.258Z,0.60
2018-07-02T03:51:50.525Z,0.50
2018-07-02T03:54:18.738Z,0.60
2018-07-02T03:56:46.755Z,0.50
2018-07-02T03:59:15.804Z,0.50
2018-07-02T04:01:44.212Z,0.60
2018-07-02T04:04:12.341Z,0.50
2018-07-02T04:06:40.645Z,0.70
2018-07-02T04:09:09.581Z,0.57
2018-07-02T04:11:38.308Z,0.60
2018-07-02T04:14:06.590Z,1.20
2018-07-02T04:16:34.692Z,4.30
2018-07-02T04:19:07.811Z,1.40
2018-07-02T04:21:35.727Z,0.80
2018-07-02T04:24:03.891Z,0.90
2018-07-02T04:26:31.862Z,0.90
2018-07-02T04:29:00.958Z,0.70
2018-07-02T04:31:28.921Z,0.60
2018-07-02T04:33:56.912Z,0.70
2018-07-02T04:36:25.178Z,1.20
2018-07-02T04:38:53.109Z,0.98
2018-07-02T04:41:21.617Z,0.85
2018-07-02T04:43:49.515Z,1.10
2018-07-02T04:46:17.708Z,0.70
2018-07-02T04:48:45.944Z,0.70
2018-07-02T04:51:13.868Z,0.93
2018-07-02T04:53:42.396Z,0.80
2018-07-02T04:56:10.985Z,0.80
2018-07-02T04:58:39.257Z,1.37
2018-07-02T05:01:08.605Z,0.90
2018-07-02T05:03:37.594Z,0.98
2018-07-02T05:06:05.776Z,1.00
2018-07-02T05:08:33.655Z,1.20
2018-07-02T05:11:02.458Z,1.12
2018-07-02T05:13:30.684Z,0.90
2018-07-02T05:15:58.606Z,0.90
2018-07-02T05:18:27.253Z,0.80
2018-07-02T05:20:55.628Z,0.75
2018-07-02T05:23:23.556Z,0.70
2018-07-02T05:25:51.841Z,0.85
2018-07-02T05:28:19.785Z,0.80
2018-07-02T05:30:47.856Z,0.70
2018-07-02T05:33:15.796Z,1.15
2018-07-02T05:35:43.920Z,1.17
2018-07-02T05:38:11.897Z,1.00
2018-07-02T05:40:39.890Z,0.80
2018-07-02T05:43:07.900Z,0.80
2018-07-02T05:45:36.184Z,0.60
2018-07-02T05:48:04.128Z,0.70
2018-07-02T05:50:32.140Z,0.70
2018-07-02T05:53:00.292Z,1.15
2018-07-02T05:55:28.428Z,1.50
2018-07-02T05:57:56.564Z,1.15
2018-07-02T06:00:24.675Z,1.03
2018-07-02T06:02:52.505Z,1.10
2018-07-02T06:05:20.488Z,0.70
2018-07-02T06:07:48.693Z,0.80
2018-07-02T06:10:16.715Z,1.40
2018-07-02T06:12:45.128Z,0.90
2018-07-02T06:15:13.326Z,0.90
2018-07-02T06:17:41.553Z,0.80
2018-07-02T06:20:09.505Z,0.70
2018-07-02T06:22:37.970Z,0.80
2018-07-02T06:25:06.489Z,0.88
2018-07-02T06:27:34.729Z,0.70
2018-07-02T06:30:02.864Z,0.60
2018-07-02T06:32:30.824Z,0.60
2018-07-02T06:34:58.789Z,0.60
2018-07-02T06:37:26.744Z,0.80
2018-07-02T06:39:55.304Z,0.80
2018-07-02T06:42:23.253Z,0.70
2018-07-02T06:44:51.572Z,0.75
2018-07-02T06:47:19.573Z,0.65
2018-07-02T06:49:47.615Z,0.70
2018-07-02T06:52:15.813Z,0.60
2018-07-02T06:54:44.072Z,0.80
2018-07-02T06:57:12.119Z,1.00
2018-07-02T06:59:40.517Z,0.80
2018-07-02T07:02:08.544Z,0.80
2018-07-02T07:04:36.473Z,0.60
2018-07-02T07:07:04.501Z,0.70
2018-07-02T07:09:32.514Z,0.60
2018-07-02T07:12:00.716Z,0.60
2018-07-02T07:14:29.624Z,1.45
2018-07-02T07:16:57.800Z,0.90
2018-07-02T07:19:25.700Z,0.80
2018-07-02T07:21:54.878Z,0.70
2018-07-02T07:24:23.291Z,0.60
2018-07-02T07:26:51.421Z,0.70
2018-07-02T07:29:19.497Z,0.90
2018-07-02T07:31:47.485Z,0.60
2018-07-02T07:34:15.680Z,1.25
2018-07-02T07:36:44.157Z,1.07
2018-07-02T07:39:12.498Z,0.90
2018-07-02T07:41:41.061Z,0.90
2018-07-02T07:44:09.016Z,1.00
2018-07-02T07:46:37.185Z,1.00
2018-07-02T07:49:05.642Z,0.70
2018-07-02T07:51:33.658Z,0.90
2018-07-02T07:54:02.534Z,1.10
2018-07-02T07:56:30.489Z,0.90
2018-07-02T07:58:58.576Z,0.70
2018-07-02T08:01:26.541Z,0.80
2018-07-02T08:03:54.687Z,0.90
2018-07-02T08:06:22.667Z,0.85
2018-07-02T08:08:50.750Z,0.93
2018-07-02T08:11:18.781Z,0.80
2018-07-02T08:13:46.748Z,0.80
2018-07-02T08:16:14.781Z,0.70
2018-07-02T08:18:43.641Z,0.75
2018-07-02T08:21:11.849Z,0.80
2018-07-02T08:23:39.788Z,0.90
2018-07-02T08:26:07.729Z,0.80
2018-07-02T08:28:37.015Z,0.90
2018-07-02T08:31:05.824Z,0.80
2018-07-02T08:33:34.084Z,0.80
2018-07-02T08:36:02.087Z,0.90
2018-07-02T08:38:30.364Z,0.90
2018-07-02T08:40:58.356Z,0.80
2018-07-02T08:43:26.619Z,0.80
2018-07-02T08:45:54.618Z,0.90
2018-07-02T08:48:22.550Z,0.93
2018-07-02T08:50:50.517Z,0.70
2018-07-02T08:53:18.499Z,0.70
2018-07-02T08:55:47.421Z,1.20
2018-07-02T08:58:16.688Z,0.60
2018-07-02T09:00:45.007Z,1.27
2018-07-02T09:03:12.973Z,0.90
2018-07-02T09:05:42.226Z,0.60
2018-07-02T09:08:10.213Z,0.77
2018-07-02T09:10:38.321Z,0.80
2018-07-02T09:13:06.348Z,0.90
2018-07-02T09:15:34.518Z,0.75
2018-07-02T09:18:02.456Z,0.70
2018-07-02T09:20:30.359Z,1.20
2018-07-02T09:22:59.241Z,0.70
2018-07-02T09:25:27.201Z,0.80
2018-07-02T09:27:55.162Z,0.90
2018-07-02T09:30:23.278Z,1.10
2018-07-02T09:32:51.187Z,0.60
2018-07-02T09:35:19.152Z,0.60
2018-07-02T09:37:54.193Z,0.70
2018-07-02T09:40:33.678Z,1.10
2018-07-02T09:43:03.398Z,0.90
2018-07-02T09:45:31.695Z,1.05
2018-07-02T09:47:59.628Z,0.80
2018-07-02T09:50:27.882Z,0.60
2018-07-02T09:52:55.841Z,0.70
2018-07-02T09:55:23.820Z,0.70
2018-07-02T09:57:51.780Z,0.70
2018-07-02T10:00:20.325Z,0.70
2018-07-02T10:02:48.365Z,0.70
2018-07-02T10:05:16.323Z,0.90
2018-07-02T10:07:45.305Z,0.80
2018-07-02T10:10:13.553Z,0.70
2018-07-02T10:12:41.439Z,1.00
2018-07-02T10:15:09.348Z,0.70
2018-07-02T10:17:37.533Z,0.80
2018-07-02T10:20:05.652Z,0.80
2018-07-02T10:22:34.063Z,0.65
2018-07-02T10:25:02.023Z,0.80
2018-07-02T10:27:30.016Z,1.10
2018-07-02T10:29:58.029Z,0.82
2018-07-02T10:32:26.181Z,0.90
2018-07-02T10:34:54.478Z,0.60
2018-07-02T10:37:22.461Z,1.00
2018-07-02T10:39:50.443Z,0.72
2018-07-02T10:42:18.396Z,0.62
2018-07-02T10:44:46.338Z,0.80
2018-07-02T10:47:14.525Z,0.70
2018-07-02T10:49:43.103Z,0.60
2018-07-02T10:52:11.075Z,0.70
2018-07-02T10:54:39.058Z,0.70
2018-07-02T10:57:07.017Z,0.65
2018-07-02T10:59:35.445Z,0.60
2018-07-02T11:02:03.693Z,0.68
2018-07-02T11:04:31.681Z,0.60
2018-07-02T11:06:59.688Z,0.60
2018-07-02T11:09:27.918Z,0.60
2018-07-02T11:11:55.881Z,0.60
2018-07-02T11:14:25.126Z,0.60
2018-07-02T11:16:53.093Z,0.65
2018-07-02T11:19:21.039Z,0.60
2018-07-02T11:21:48.988Z,0.80
2018-07-02T11:24:17.009Z,0.70
2018-07-02T11:26:44.944Z,0.70
2018-07-02T11:29:12.879Z,0.65
2018-07-02T11:31:41.159Z,0.60
2018-07-02T11:34:09.357Z,0.70
2018-07-02T11:36:37.331Z,0.80
2018-07-02T11:39:07.193Z,0.80
2018-07-02T11:41:35.129Z,0.60
2018-07-02T11:44:03.629Z,0.50
2018-07-02T11:46:32.005Z,0.60
2018-07-02T11:49:00.282Z,0.60
2018-07-02T11:51:28.180Z,0.68
2018-07-02T11:53:56.180Z,0.70
2018-07-02T11:56:24.393Z,0.62
2018-07-02T11:58:52.384Z,0.80
2018-07-02T12:01:20.404Z,0.60
2018-07-02T12:03:48.363Z,0.60
2018-07-02T12:06:16.380Z,0.62
2018-07-02T12:08:44.316Z,0.60
2018-07-02T12:11:12.381Z,0.60
2018-07-02T12:13:40.473Z,0.80
2018-07-02T12:16:08.460Z,0.80
2018-07-02T12:18:36.726Z,0.60
2018-07-02T12:21:04.667Z,0.70
2018-07-02T12:23:32.841Z,0.70
2018-07-02T12:26:00.864Z,0.70
2018-07-02T12:28:29.124Z,0.60
2018-07-02T12:30:57.083Z,0.68
2018-07-02T12:33:25.289Z,0.70
2018-07-02T12:35:53.377Z,0.60
2018-07-02T12:38:21.312Z,0.70
2018-07-02T12:40:49.756Z,0.60
2018-07-02T12:43:17.721Z,0.80
2018-07-02T12:45:45.688Z,0.60
2018-07-02T12:48:13.630Z,0.70
2018-07-02T12:50:41.806Z,0.60
2018-07-02T12:53:09.722Z,1.60
2018-07-02T12:55:37.755Z,0.68
2018-07-02T12:58:05.728Z,0.60
2018-07-02T13:00:33.966Z,0.80
2018-07-02T13:03:02.172Z,1.00
2018-07-02T13:05:30.145Z,0.70
2018-07-02T13:07:58.594Z,0.70
2018-07-02T13:10:26.592Z,0.80
2018-07-02T13:12:54.849Z,0.75
2018-07-02T13:15:23.040Z,0.70
2018-07-02T13:17:51.067Z,0.80
2018-07-02T13:20:19.065Z,1.00
2018-07-02T13:22:47.220Z,0.88
2018-07-02T13:25:15.195Z,0.90
2018-07-02T13:27:43.366Z,0.80
2018-07-02T13:30:11.604Z,0.70
2018-07-02T13:32:40.177Z,0.80
2018-07-02T13:35:08.212Z,0.90
2018-07-02T13:37:36.688Z,1.00
2018-07-02T13:40:04.828Z,0.80
2018-07-02T13:42:33.171Z,1.22
2018-07-02T13:45:02.570Z,1.10
2018-07-02T13:47:30.559Z,0.90
2018-07-02T13:49:59.027Z,0.90
2018-07-02T13:52:26.920Z,0.60
2018-07-02T13:54:55.222Z,0.60
2018-07-02T13:57:23.264Z,0.70
2018-07-02T13:59:51.221Z,0.70
2018-07-02T14:02:19.290Z,0.70
2018-07-02T14:04:47.386Z,0.80
2018-07-02T14:07:15.344Z,0.60
2018-07-02T14:09:43.877Z,0.63
2018-07-02T14:12:12.072Z,0.80
2018-07-02T14:14:40.209Z,0.88
2018-07-02T14:17:08.704Z,0.90
2018-07-02T14:19:36.736Z,0.90
2018-07-02T14:22:04.848Z,0.90
2018-07-02T14:24:32.862Z,1.30
2018-07-02T14:27:01.025Z,1.30
2018-07-02T14:29:29.765Z,1.90
2018-07-02T14:31:57.704Z,1.10
2018-07-02T14:34:25.625Z,1.80
2018-07-02T14:36:54.591Z,1.10
2018-07-02T14:39:22.594Z,1.60
2018-07-02T14:41:50.557Z,1.60
2018-07-02T14:44:18.472Z,2.90
2018-07-02T14:46:46.703Z,1.27
2018-07-02T14:49:14.622Z,1.00
2018-07-02T14:51:42.902Z,1.20
2018-07-02T14:54:10.842Z,1.00
2018-07-02T14:56:39.224Z,1.00
2018-07-02T14:59:07.229Z,1.20
2018-07-02T15:01:35.156Z,0.70
2018-07-02T15:04:03.123Z,1.50
2018-07-02T15:06:31.048Z,0.90
2018-07-02T15:08:59.073Z,1.30
2018-07-02T15:11:27.025Z,0.80
2018-07-02T15:13:54.945Z,0.80
2018-07-02T15:16:23.161Z,0.70
2018-07-02T15:18:51.388Z,0.70
2018-07-02T15:21:19.657Z,0.80
2018-07-02T15:23:47.824Z,0.80
2018-07-02T15:26:15.696Z,0.70
2018-07-02T15:28:43.564Z,0.80
2018-07-02T15:31:11.635Z,0.60
2018-07-02T15:33:39.581Z,0.70
2018-07-02T15:36:07.467Z,0.60
2018-07-02T15:38:35.533Z,0.60
2018-07-02T15:41:03.537Z,0.60
2018-07-02T15:43:31.468Z,0.80
2018-07-02T15:46:01.108Z,0.60
2018-07-02T15:48:29.028Z,0.60
2018-07-02T15:50:57.215Z,0.70
2018-07-02T15:53:25.604Z,0.80
2018-07-02T15:55:55.461Z,0.85
2018-07-02T15:58:23.424Z,0.60
2018-07-02T16:00:51.617Z,1.10
2018-07-02T16:03:19.773Z,0.90
2018-07-02T16:05:47.663Z,0.80
2018-07-02T16:08:15.789Z,0.93
2018-07-02T16:10:44.319Z,0.70
2018-07-02T16:13:12.584Z,0.80
2018-07-02T16:15:40.673Z,0.68
2018-07-02T16:18:08.660Z,0.80
2018-07-02T16:20:36.702Z,0.78
2018-07-02T16:23:04.929Z,0.80
2018-07-02T16:25:32.844Z,0.70
2018-07-02T16:28:01.025Z,0.70
2018-07-02T16:30:29.376Z,0.82
2018-07-02T16:32:57.413Z,0.60
2018-07-02T16:35:25.339Z,0.90
2018-07-02T16:37:53.789Z,0.70
2018-07-02T16:40:21.676Z,0.60
2018-07-02T16:42:49.702Z,0.60
2018-07-02T16:45:17.676Z,0.70
2018-07-02T16:47:45.669Z,0.70
2018-07-02T16:50:13.990Z,0.70
2018-07-02T16:52:41.956Z,0.65
2018-07-02T16:55:09.877Z,0.60
2018-07-02T16:57:38.401Z,0.60
2018-07-02T17:00:06.594Z,0.80
2018-07-02T17:02:34.747Z,0.62
2018-07-02T17:05:02.709Z,0.80
2018-07-02T17:07:30.777Z,0.80
2018-07-02T17:09:58.724Z,0.70
2018-07-02T17:12:27.144Z,0.70
2018-07-02T17:14:55.111Z,0.70
2018-07-02T17:17:23.387Z,0.60
2018-07-02T17:19:51.472Z,1.40
2018-07-02T17:22:19.453Z,0.70
2018-07-02T17:24:47.369Z,0.80
2018-07-02T17:27:15.681Z,0.85
2018-07-02T17:29:43.656Z,1.00
2018-07-02T17:32:11.594Z,0.60
2018-07-02T17:34:39.566Z,0.80
2018-07-02T17:37:07.792Z,0.70
2018-07-02T17:39:36.010Z,0.70
2018-07-02T17:42:04.272Z,0.70
2018-07-02T17:44:32.245Z,0.80
2018-07-02T17:47:00.159Z,0.70
2018-07-02T17:49:28.434Z,0.60
2018-07-02T17:51:56.393Z,0.80
2018-07-02T17:54:24.881Z,0.70
2018-07-02T17:56:52.892Z,0.70
2018-07-02T17:59:21.221Z,0.70
2018-07-02T18:01:49.356Z,0.90
2018-07-02T18:04:17.272Z,0.90
2018-07-02T18:06:45.272Z,1.00
2018-07-02T18:09:13.737Z,1.10
2018-07-02T18:11:41.918Z,1.10
2018-07-02T18:14:10.272Z,1.10
2018-07-02T18:16:38.526Z,1.05
2018-07-02T18:19:06.511Z,0.90
2018-07-02T18:21:34.573Z,0.90
2018-07-02T18:24:02.876Z,0.75
2018-07-02T18:26:30.875Z,0.90
2018-07-02T18:28:59.136Z,1.70
2018-07-02T18:31:27.102Z,1.50
2018-07-02T18:33:55.117Z,2.08
2018-07-02T18:36:23.101Z,2.62
2018-07-02T18:38:51.048Z,1.90
2018-07-02T18:41:19.285Z,1.67
2018-07-02T18:43:47.449Z,1.20
2018-07-02T18:46:15.376Z,1.57
2018-07-02T18:48:43.700Z,1.10
2018-07-02T18:51:12.205Z,1.30
2018-07-02T18:53:40.725Z,1.40
2018-07-02T18:56:09.030Z,1.60
2018-07-02T18:58:37.108Z,2.30
2018-07-02T19:01:05.040Z,2.00
2018-07-02T19:03:33.228Z,2.50
2018-07-02T19:06:01.404Z,4.70
2018-07-02T19:08:29.548Z,2.93
2018-07-02T19:10:57.817Z,2.53
2018-07-02T19:13:25.805Z,2.90
2018-07-02T19:15:54.478Z,2.45
2018-07-02T19:18:23.528Z,3.00
2018-07-02T19:20:51.904Z,3.30
2018-07-02T19:23:19.868Z,3.40
2018-07-02T19:25:47.913Z,2.83
2018-07-02T19:28:15.908Z,2.65
2018-07-02T19:30:43.872Z,2.40
2018-07-02T19:33:11.839Z,1.90
2018-07-02T19:40:39.853Z,1.82
2018-07-02T19:43:08.145Z,1.80
2018-07-02T19:45:36.320Z,1.50
2018-07-02T19:48:04.757Z,2.20
2018-07-02T19:50:32.737Z,2.08
2018-07-02T19:53:00.997Z,1.90
2018-07-02T19:55:29.200Z,1.60
2018-07-02T19:57:57.443Z,1.60
2018-07-02T20:00:25.628Z,2.05
2018-07-02T20:02:54.335Z,2.50
2018-07-02T20:05:22.244Z,2.90
2018-07-02T20:07:50.167Z,2.90
2018-07-02T20:10:18.325Z,3.10
2018-07-02T20:12:46.272Z,2.62
2018-07-02T20:15:14.441Z,2.17
2018-07-02T20:17:42.416Z,1.70
2018-07-02T20:20:11.570Z,1.42
2018-07-02T20:22:40.270Z,1.25
2018-07-02T20:25:08.841Z,1.20
2018-07-02T20:27:37.002Z,1.10
2018-07-02T20:30:05.996Z,1.00
2018-07-02T20:32:33.980Z,1.10
2018-07-02T20:35:01.916Z,1.20
2018-07-02T20:37:30.129Z,1.00
2018-07-02T20:39:58.136Z,1.20
2018-07-02T20:42:26.140Z,1.20
2018-07-02T20:44:54.121Z,1.10
2018-07-02T20:47:22.064Z,1.15
2018-07-02T20:49:50.507Z,1.10
2018-07-02T20:52:18.716Z,1.05
2018-07-02T20:54:46.861Z,1.10
2018-07-02T20:57:14.782Z,1.02
2018-07-02T20:59:42.774Z,1.00
2018-07-02T21:02:10.748Z,1.10
2018-07-02T21:04:39.058Z,1.07
2018-07-02T21:07:07.357Z,0.90
2018-07-02T21:09:35.590Z,1.00
2018-07-02T21:12:03.988Z,1.20
2018-07-02T21:14:32.541Z,1.00
2018-07-02T21:17:01.129Z,0.90
2018-07-02T21:19:29.604Z,1.15
2018-07-02T21:21:57.874Z,0.80
2018-07-02T21:24:26.265Z,0.85
2018-07-02T21:26:54.211Z,0.90
2018-07-02T21:29:22.446Z,0.98
2018-07-02T21:31:50.893Z,1.00
2018-07-02T21:34:18.897Z,0.90
2018-07-02T21:36:47.341Z,1.00
2018-07-02T21:39:15.393Z,0.90
2018-07-02T21:41:43.831Z,1.07
2018-07-02T21:44:11.973Z,1.00
2018-07-02T21:46:40.303Z,0.90
2018-07-02T21:49:08.732Z,1.20
2018-07-02T21:51:36.709Z,1.00
2018-07-02T21:54:04.977Z,0.80
2018-07-02T21:56:33.172Z,1.00
2018-07-02T21:59:01.299Z,1.00
2018-07-02T22:01:29.289Z,0.98
2018-07-02T22:03:57.282Z,1.10
2018-07-02T22:06:25.548Z,1.20
2018-07-02T22:08:53.514Z,1.70
2018-07-02T22:11:21.786Z,1.72
2018-07-02T22:13:49.819Z,1.30
2018-07-02T22:16:18.725Z,1.00
2018-07-02T22:18:46.689Z,1.10
2018-07-02T22:21:14.848Z,1.00
2018-07-02T22:23:43.270Z,1.00
2018-07-02T22:26:11.869Z,1.00
2018-07-02T22:28:40.442Z,1.20
2018-07-02T22:31:08.493Z,1.00
2018-07-02T22:33:36.413Z,1.00
2018-07-02T22:36:05.110Z,0.80
2018-07-02T22:38:33.363Z,3.17
2018-07-02T22:41:01.364Z,0.80
2018-07-02T22:43:29.553Z,1.00
2018-07-02T22:45:57.733Z,0.90
2018-07-02T22:48:26.039Z,2.22
2018-07-02T22:50:53.995Z,1.20
2018-07-02T22:53:22.424Z,0.90
2018-07-02T22:55:58.844Z,1.30
2018-07-02T22:58:26.824Z,0.98
2018-07-02T23:00:55.722Z,0.88
2018-07-02T23:03:24.373Z,1.00
2018-07-02T23:05:52.347Z,0.90
2018-07-02T23:08:20.759Z,0.80
2018-07-02T23:10:48.880Z,0.80
2018-07-02T23:13:16.849Z,1.00
2018-07-02T23:15:44.842Z,0.90
2018-07-02T23:18:12.860Z,0.90
2018-07-02T23:20:40.856Z,0.80
2018-07-02T23:23:08.776Z,0.73
2018-07-02T23:25:37.049Z,0.80
2018-07-02T23:28:05.281Z,0.80
2018-07-02T23:30:34.017Z,0.70
2018-07-02T23:33:02.128Z,0.80
2018-07-02T23:35:30.555Z,0.90
2018-07-02T23:37:58.854Z,0.80
2018-07-02T23:40:27.594Z,0.80
2018-07-02T23:42:55.910Z,0.80
2018-07-02T23:45:24.905Z,0.70
2018-07-02T23:47:53.411Z,0.80
2018-07-02T23:50:21.440Z,0.82
2018-07-02T23:52:50.659Z,0.98
2018-07-02T23:55:19.134Z,0.90
2018-07-02T23:57:47.427Z,0.83
